createdAt,value
2022-11-26T09:15:42.367Z,18.92
2022-11-26T09:18:08.937Z,20.58
2022-11-26T09:20:35.481Z,21.70
2022-11-26T09:23:02.026Z,18.55
2022-11-26T09:25:28.586Z,17.83
2022-11-26T09:27:55.133Z,17.63
2022-11-26T09:30:21.675Z,21.08
2022-11-26T09:32:48.321Z,21.88
2022-11-26T09:35:15.020Z,19.98
2022-11-26T09:37:41.629Z,21.40
2022-11-26T09:40:11.746Z,18.67
2022-11-26T09:42:50.258Z,21.45
2022-11-26T09:50:36.720Z,20.70
2022-11-26T09:53:16.139Z,22.08
2022-11-26T09:55:45.142Z,21.63
2022-11-26T09:58:16.242Z,22.65
2022-11-26T10:00:45.482Z,21.27
2022-11-26T10:03:20.444Z,20.88
2022-11-26T10:06:07.058Z,19.85
2022-11-26T10:09:12.227Z,19.65
2022-11-26T10:12:04.356Z,19.08
2022-11-26T10:14:57.559Z,21.42
2022-11-26T10:17:26.970Z,20.35
2022-11-26T10:20:05.453Z,21.15
2022-11-26T10:24:59.892Z,20.00
2022-11-26T10:27:30.839Z,19.60
2022-11-26T10:30:16.644Z,21.92
2022-11-26T10:32:44.153Z,24.08
2022-11-26T10:35:15.865Z,25.42
2022-11-26T10:37:42.639Z,25.42
2022-11-26T10:40:25.580Z,25.52
2022-11-26T10:43:01.414Z,25.80
2022-11-26T10:45:43.218Z,29.05
2022-11-26T10:48:22.187Z,27.92
2022-11-26T10:51:00.872Z,26.83
2022-11-26T10:53:29.451Z,25.25
2022-11-26T10:58:26.559Z,25.38
2022-11-26T11:01:04.779Z,24.73
2022-11-26T11:06:21.762Z,24.83
2022-11-26T11:08:50.033Z,25.98
2022-11-26T11:11:30.663Z,25.30
2022-11-26T11:13:57.648Z,23.85
2022-11-26T11:16:30.498Z,24.98
2022-11-26T11:18:58.884Z,23.35
2022-11-26T11:21:34.368Z,25.52
2022-11-26T11:24:16.385Z,24.75
2022-11-26T11:26:47.843Z,24.38
2022-11-26T11:29:29.709Z,25.92
2022-11-26T11:31:57.689Z,27.00
2022-11-26T11:34:29.747Z,24.95
2022-11-26T11:37:05.071Z,28.17
2022-11-26T11:39:35.482Z,26.48
2022-11-26T11:42:04.862Z,26.52
2022-11-26T11:44:48.280Z,26.65
2022-11-26T11:47:37.471Z,24.23
2022-11-26T11:50:17.563Z,24.33
2022-11-26T11:53:01.976Z,25.30
2022-11-26T11:56:02.068Z,22.80
2022-11-26T11:58:47.425Z,25.67
2022-11-26T12:01:41.430Z,26.00
2022-11-26T12:04:20.241Z,24.45
2022-11-26T12:07:08.698Z,24.73
2022-11-26T12:09:39.790Z,23.27
2022-11-26T12:12:25.331Z,25.77
2022-11-26T12:14:52.836Z,23.00
2022-11-26T12:17:39.293Z,27.77
2022-11-26T12:20:22.916Z,25.23
2022-11-26T12:22:53.985Z,23.95
2022-11-26T12:25:36.839Z,23.38
2022-11-26T12:28:19.831Z,23.42
2022-11-26T12:30:55.474Z,22.05
2022-11-26T12:33:42.029Z,22.58
2022-11-26T12:36:25.764Z,22.40
2022-11-26T12:39:18.795Z,21.70
2022-11-26T12:42:15.475Z,23.15
2022-11-26T12:44:44.747Z,23.83
2022-11-26T12:47:30.015Z,24.38
2022-11-26T12:50:15.869Z,23.90
2022-11-26T12:52:52.100Z,22.48
2022-11-26T12:55:42.690Z,22.15
2022-11-26T12:58:12.462Z,19.65
2022-11-26T13:00:39.276Z,21.63
2022-11-26T13:03:06.741Z,21.90
2022-11-26T13:06:08.757Z,21.02
2022-11-26T13:09:16.158Z,21.70
2022-11-26T13:11:54.879Z,20.42
2022-11-26T13:14:40.681Z,21.25
2022-11-26T13:17:13.308Z,21.50
2022-11-26T13:19:57.303Z,19.45
2022-11-26T13:22:29.830Z,18.27
2022-11-26T13:25:21.428Z,21.33
2022-11-26T13:27:49.318Z,21.45
2022-11-26T13:30:50.786Z,19.40
2022-11-26T13:33:42.513Z,18.77
2022-11-26T13:36:27.804Z,18.38
2022-11-26T13:39:00.308Z,17.70
2022-11-26T13:41:29.890Z,18.55
2022-11-26T13:44:11.514Z,17.17
2022-11-26T13:46:42.006Z,18.33
2022-11-26T13:49:32.210Z,17.40
2022-11-26T13:52:05.288Z,16.23
2022-11-26T13:54:58.739Z,15.77
2022-11-26T13:57:31.626Z,15.45
2022-11-26T13:59:58.843Z,15.68
2022-11-26T14:02:34.876Z,16.70
2022-11-26T14:05:09.226Z,14.70
2022-11-26T14:07:36.140Z,13.63
2022-11-26T14:10:05.980Z,13.63
2022-11-26T14:13:03.732Z,13.50
2022-11-26T14:15:42.384Z,12.70
2022-11-26T14:18:09.538Z,13.30
2022-11-26T14:20:57.893Z,13.00
2022-11-26T14:26:25.978Z,13.00
2022-11-26T14:29:06.335Z,11.32
2022-11-26T14:31:33.987Z,12.13
2022-11-26T14:34:08.619Z,12.02
2022-11-26T14:36:35.189Z,11.30
2022-11-26T14:39:07.735Z,10.70
2022-11-26T14:41:57.883Z,11.38
2022-11-26T14:44:28.742Z,11.32
2022-11-26T14:46:58.660Z,11.32
2022-11-26T14:49:32.642Z,10.00
2022-11-26T14:51:59.961Z,10.20
2022-11-26T14:54:35.292Z,11.35
2022-11-26T14:57:08.426Z,9.98
2022-11-26T14:59:35.112Z,9.77
2022-11-26T15:02:01.925Z,10.30
2022-11-26T15:04:39.113Z,9.30
2022-11-26T15:07:07.327Z,9.50
2022-11-26T15:09:33.871Z,9.77
2022-11-26T15:12:10.034Z,8.95
2022-11-26T15:14:46.877Z,8.85
2022-11-26T15:17:16.975Z,8.50
2022-11-26T15:19:44.248Z,8.40
2022-11-26T15:22:39.785Z,7.93
2022-11-26T15:25:16.520Z,8.70
2022-11-26T15:27:55.648Z,7.68
2022-11-26T15:30:26.920Z,8.48
2022-11-26T15:33:02.427Z,9.30
2022-11-26T15:35:30.197Z,8.30
2022-11-26T15:37:57.603Z,8.43
2022-11-26T15:40:33.139Z,7.50
2022-11-26T15:43:02.774Z,7.85
2022-11-26T15:45:38.928Z,7.78
2022-11-26T15:48:07.474Z,9.02
2022-11-26T15:50:36.608Z,8.45
2022-11-26T15:53:06.024Z,6.80
2022-11-26T15:55:35.256Z,6.80
2022-11-26T15:58:05.584Z,7.32
2022-11-26T16:00:40.836Z,7.38
2022-11-26T16:03:35.610Z,7.03
2022-11-26T16:06:05.030Z,6.80
2022-11-26T16:08:32.159Z,7.28
2022-11-26T16:11:17.710Z,7.43
2022-11-26T16:13:44.302Z,6.68
2022-11-26T16:16:17.548Z,7.10
2022-11-26T16:18:54.086Z,7.65
2022-11-26T16:21:24.535Z,8.57
2022-11-26T16:24:02.667Z,7.68
2022-11-26T16:26:29.754Z,6.65
2022-11-26T16:28:56.364Z,6.88
2022-11-26T16:31:23.441Z,7.80
2022-11-26T16:33:50.201Z,6.95
2022-11-26T16:36:25.194Z,7.07
2022-11-26T16:38:52.537Z,6.68
2022-11-26T16:41:21.190Z,7.25
2022-11-26T16:43:48.746Z,6.80
2022-11-26T16:46:20.736Z,6.20
2022-11-26T16:48:48.086Z,5.85
2022-11-26T16:51:14.921Z,5.53
2022-11-26T16:53:41.936Z,5.55
2022-11-26T16:56:18.973Z,6.43
2022-11-26T16:58:45.675Z,6.15
2022-11-26T17:01:12.253Z,7.15
2022-11-26T17:03:38.963Z,6.15
2022-11-26T17:06:19.482Z,6.85
2022-11-26T17:08:49.780Z,7.30
2022-11-26T17:11:17.176Z,6.13
2022-11-26T17:13:43.970Z,6.88
2022-11-26T17:16:19.209Z,7.22
2022-11-26T17:18:46.278Z,6.13
2022-11-26T17:21:13.036Z,6.68
2022-11-26T17:23:39.723Z,6.07
2022-11-26T17:26:21.049Z,6.15
2022-11-26T17:28:48.313Z,6.60
2022-11-26T17:31:15.240Z,7.40
2022-11-26T17:33:41.818Z,6.65
2022-11-26T17:36:17.517Z,6.93
2022-11-26T17:38:44.362Z,7.50
2022-11-26T17:41:11.348Z,7.13
2022-11-26T17:43:38.552Z,6.80
2022-11-26T17:46:05.495Z,6.32
2022-11-26T17:48:32.179Z,6.97
2022-11-26T17:50:58.766Z,6.07
2022-11-26T17:53:25.326Z,6.68
2022-11-26T17:55:51.879Z,5.80
2022-11-26T17:58:18.453Z,6.32
2022-11-26T18:00:45.032Z,5.85
2022-11-26T18:03:11.554Z,6.72
2022-11-26T18:05:42.068Z,6.03
2022-11-26T18:08:09.053Z,6.50
2022-11-26T18:10:38.595Z,6.90
2022-11-26T18:13:05.132Z,6.45
2022-11-26T18:15:31.715Z,5.93
2022-11-26T18:17:58.343Z,5.75
2022-11-26T18:20:27.169Z,5.85
2022-11-26T18:23:00.763Z,7.05
2022-11-26T18:25:28.392Z,6.20
2022-11-26T18:27:54.964Z,6.37
2022-11-26T18:30:21.714Z,6.28
2022-11-26T18:32:48.339Z,6.88
2022-11-26T18:35:14.999Z,5.95
2022-11-26T18:37:41.954Z,5.93
2022-11-26T18:40:11.493Z,6.85
2022-11-26T18:42:38.505Z,6.88
2022-11-26T18:45:10.781Z,6.88
2022-11-26T18:47:37.804Z,6.30
2022-11-26T18:50:05.381Z,6.40
2022-11-26T18:52:31.988Z,6.18
2022-11-26T18:54:58.705Z,6.95
2022-11-26T18:57:25.295Z,6.88
2022-11-26T18:59:51.874Z,7.55
2022-11-26T19:02:18.582Z,7.95
2022-11-26T19:04:45.876Z,7.80
2022-11-26T19:07:13.918Z,7.28
2022-11-26T19:09:40.892Z,6.97
2022-11-26T19:12:07.831Z,6.22
2022-11-26T19:14:34.396Z,7.28
2022-11-26T19:17:01.050Z,6.45
2022-11-26T19:19:28.241Z,6.90
2022-11-26T19:22:01.047Z,6.38
2022-11-26T19:24:28.720Z,6.07
2022-11-26T19:26:55.419Z,6.38
2022-11-26T19:29:22.047Z,6.03
2022-11-26T19:31:48.629Z,5.78
2022-11-26T19:34:15.873Z,5.63
2022-11-26T19:36:42.991Z,4.72
2022-11-26T19:39:09.614Z,5.03
2022-11-26T19:41:36.241Z,5.32
2022-11-26T19:44:05.339Z,5.68
2022-11-26T19:46:32.117Z,6.00
2022-11-26T19:48:58.799Z,6.15
2022-11-26T19:51:26.887Z,5.22
2022-11-26T19:53:55.535Z,6.72
2022-11-26T19:56:25.290Z,6.10
2022-11-26T19:58:54.029Z,5.30
2022-11-26T20:01:21.648Z,5.68
2022-11-26T20:03:48.471Z,6.03
2022-11-26T20:06:18.879Z,6.00
2022-11-26T20:08:46.751Z,6.22
2022-11-26T20:11:14.534Z,6.47
2022-11-26T20:13:42.734Z,7.55
2022-11-26T20:16:15.386Z,6.82
2022-11-26T20:18:42.091Z,6.18
2022-11-26T20:21:14.029Z,5.63
2022-11-26T20:23:40.846Z,5.82
2022-11-26T20:26:25.141Z,6.30
2022-11-26T20:28:52.667Z,5.78
2022-11-26T20:31:23.293Z,5.68
2022-11-26T20:33:51.330Z,5.75
2022-11-26T20:36:20.918Z,5.85
2022-11-26T20:38:51.278Z,5.72
2022-11-26T20:41:18.085Z,5.78
2022-11-26T20:43:44.998Z,5.97
2022-11-26T20:46:13.164Z,6.75
2022-11-26T20:48:41.371Z,6.70
2022-11-26T20:51:10.634Z,5.82
2022-11-26T20:53:38.337Z,8.52
2022-11-26T20:56:05.794Z,6.43
2022-11-26T20:58:34.442Z,7.05
2022-11-26T21:01:01.542Z,5.65
2022-11-26T21:03:29.178Z,6.47
2022-11-26T21:05:55.802Z,6.17
2022-11-26T21:08:23.217Z,6.50
2022-11-26T21:10:50.469Z,5.72
2022-11-26T21:13:18.771Z,6.57
2022-11-26T21:15:49.294Z,6.47
2022-11-26T21:18:16.282Z,6.40
2022-11-26T21:20:43.983Z,6.68
2022-11-26T21:23:11.855Z,9.10
2022-11-26T21:25:39.986Z,7.15
2022-11-26T21:28:07.146Z,7.82
2022-11-26T21:30:35.316Z,7.05
2022-11-26T21:33:08.727Z,6.00
2022-11-26T21:35:36.357Z,6.75
2022-11-26T21:38:04.177Z,6.20
2022-11-26T21:40:30.813Z,6.07
2022-11-26T21:42:57.466Z,5.85
2022-11-26T21:45:24.460Z,6.75
2022-11-26T21:47:51.859Z,6.25
2022-11-26T21:50:19.471Z,5.80
2022-11-26T21:52:46.671Z,6.53
2022-11-26T21:55:13.296Z,7.80
2022-11-26T21:57:39.914Z,7.45
2022-11-26T22:00:07.311Z,7.10
2022-11-26T22:02:34.051Z,6.88
2022-11-26T22:05:00.688Z,5.38
2022-11-26T22:07:27.818Z,8.00
2022-11-26T22:09:54.667Z,11.43
2022-11-26T22:12:21.287Z,15.25
2022-11-26T22:14:47.842Z,13.68
2022-11-26T22:17:14.392Z,11.65
2022-11-26T22:19:41.364Z,9.57
2022-11-26T22:22:08.435Z,8.07
2022-11-26T22:24:34.994Z,7.15
2022-11-26T22:27:01.590Z,6.30
2022-11-26T22:29:28.147Z,5.97
2022-11-26T22:31:54.748Z,5.60
2022-11-26T22:34:24.731Z,5.47
2022-11-26T22:36:51.450Z,5.63
2022-11-26T22:39:18.556Z,6.32
2022-11-26T22:41:46.261Z,5.75
2022-11-26T22:44:13.719Z,5.32
2022-11-26T22:46:40.321Z,6.00
2022-11-26T22:49:07.478Z,5.57
2022-11-26T22:51:35.279Z,5.75
2022-11-26T22:54:04.640Z,6.03
2022-11-26T22:56:31.790Z,5.50
2022-11-26T22:59:00.025Z,7.35
2022-11-26T23:01:31.911Z,5.63
2022-11-26T23:04:00.118Z,5.90
2022-11-26T23:06:28.577Z,5.75
2022-11-26T23:08:56.630Z,5.70
2022-11-26T23:11:26.110Z,6.05
2022-11-26T23:13:53.398Z,5.50
2022-11-26T23:16:21.666Z,6.38
2022-11-26T23:18:48.512Z,6.43
2022-11-26T23:21:20.759Z,5.60
2022-11-26T23:23:48.242Z,5.82
2022-11-26T23:26:20.406Z,6.68
2022-11-26T23:28:49.985Z,6.15
2022-11-26T23:31:19.861Z,6.47
2022-11-26T23:33:47.164Z,6.35
2022-11-26T23:36:13.997Z,7.28
2022-11-26T23:38:40.848Z,7.38
2022-11-26T23:41:07.885Z,7.90
2022-11-26T23:43:35.719Z,6.78
2022-11-26T23:46:03.770Z,6.60
2022-11-26T23:48:30.847Z,7.03
2022-11-26T23:50:57.557Z,7.18
2022-11-26T23:53:24.270Z,7.95
2022-11-26T23:55:50.890Z,8.88
2022-11-26T23:58:17.556Z,14.07
